sensor_id;sensor_type;location;lat;lon;timestamp;P1;durP1;ratioP1;P2;durP2;ratioP2
38266;SDS011;24063;51.794;19.578;2022-10-19T00:00:35;10.96;;;10.96;;
38266;SDS011;24063;51.794;19.578;2022-10-19T00:01:57;11.73;;;11.63;;
38266;SDS011;24063;51.794;19.578;2022-10-19T00:02:58;10.71;;;10.68;;
38266;SDS011;24063;51.794;19.578;2022-10-19T00:04:00;11.85;;;11.85;;
38266;SDS011;24063;51.794;19.578;2022-10-19T00:05:08;12.03;;;11.94;;
38266;SDS011;24063;51.794;19.578;2022-10-19T00:06:11;11.51;;;11.46;;
38266;SDS011;24063;51.794;19.578;2022-10-19T00:07:16;11.02;;;10.95;;
38266;SDS011;24063;51.794;19.578;2022-10-19T00:08:17;11.83;;;11.80;;
38266;SDS011;24063;51.794;19.578;2022-10-19T00:09:19;11.50;;;11.40;;
38266;SDS011;24063;51.794;19.578;2022-10-19T00:10:21;12.04;;;11.91;;
38266;SDS011;24063;51.794;19.578;2022-10-19T00:11:23;11.86;;;11.74;;
38266;SDS011;24063;51.794;19.578;2022-10-19T00:12:25;11.61;;;11.60;;
38266;SDS011;24063;51.794;19.578;2022-10-19T00:13:27;10.95;;;10.88;;
38266;SDS011;24063;51.794;19.578;2022-10-19T00:14:28;10.32;;;10.32;;
38266;SDS011;24063;51.794;19.578;2022-10-19T00:15:30;10.76;;;10.75;;
38266;SDS011;24063;51.794;19.578;2022-10-19T00:16:33;10.22;;;10.21;;
38266;SDS011;24063;51.794;19.578;2022-10-19T00:17:37;11.23;;;11.09;;
38266;SDS011;24063;51.794;19.578;2022-10-19T00:18:39;11.57;;;11.36;;
38266;SDS011;24063;51.794;19.578;2022-10-19T00:19:43;10.70;;;10.68;;
38266;SDS011;24063;51.794;19.578;2022-10-19T00:20:45;11.32;;;11.29;;
38266;SDS011;24063;51.794;19.578;2022-10-19T00:21:47;12.04;;;11.91;;
38266;SDS011;24063;51.794;19.578;2022-10-19T00:22:54;12.20;;;12.16;;
38266;SDS011;24063;51.794;19.578;2022-10-19T00:23:55;11.17;;;11.00;;
38266;SDS011;24063;51.794;19.578;2022-10-19T00:24:57;11.14;;;10.91;;
38266;SDS011;24063;51.794;19.578;2022-10-19T00:25:59;11.09;;;11.03;;
38266;SDS011;24063;51.794;19.578;2022-10-19T00:27:01;10.63;;;10.55;;
38266;SDS011;24063;51.794;19.578;2022-10-19T00:28:03;10.66;;;10.59;;
38266;SDS011;24063;51.794;19.578;2022-10-19T00:29:05;10.31;;;10.30;;
38266;SDS011;24063;51.794;19.578;2022-10-19T00:30:08;10.58;;;10.58;;
38266;SDS011;24063;51.794;19.578;2022-10-19T00:31:15;10.44;;;10.44;;
38266;SDS011;24063;51.794;19.578;2022-10-19T00:32:18;10.06;;;10.06;;
38266;SDS011;24063;51.794;19.578;2022-10-19T00:33:20;10.08;;;10.08;;
38266;SDS011;24063;51.794;19.578;2022-10-19T00:34:22;10.14;;;10.14;;
38266;SDS011;24063;51.794;19.578;2022-10-19T00:35:25;9.96;;;9.96;;
38266;SDS011;24063;51.794;19.578;2022-10-19T00:36:28;10.01;;;10.00;;
38266;SDS011;24063;51.794;19.578;2022-10-19T00:37:32;9.57;;;9.52;;
38266;SDS011;24063;51.794;19.578;2022-10-19T00:38:33;10.38;;;10.36;;
38266;SDS011;24063;51.794;19.578;2022-10-19T00:39:35;9.49;;;9.49;;
38266;SDS011;24063;51.794;19.578;2022-10-19T00:40:38;10.67;;;10.65;;
38266;SDS011;24063;51.794;19.578;2022-10-19T00:41:41;10.71;;;10.71;;
38266;SDS011;24063;51.794;19.578;2022-10-19T00:42:45;10.25;;;10.25;;
38266;SDS011;24063;51.794;19.578;2022-10-19T00:45:10;10.31;;;10.31;;
38266;SDS011;24063;51.794;19.578;2022-10-19T00:46:15;10.20;;;10.20;;
38266;SDS011;24063;51.794;19.578;2022-10-19T00:47:17;9.33;;;9.33;;
38266;SDS011;24063;51.794;19.578;2022-10-19T00:48:26;9.92;;;9.89;;
38266;SDS011;24063;51.794;19.578;2022-10-19T00:49:33;10.48;;;10.31;;
38266;SDS011;24063;51.794;19.578;2022-10-19T00:50:39;9.43;;;9.39;;
38266;SDS011;24063;51.794;19.578;2022-10-19T00:51:44;9.75;;;9.51;;
38266;SDS011;24063;51.794;19.578;2022-10-19T00:52:51;10.91;;;10.83;;
38266;SDS011;24063;51.794;19.578;2022-10-19T00:53:53;9.39;;;9.39;;
38266;SDS011;24063;51.794;19.578;2022-10-19T00:54:57;9.82;;;9.82;;
38266;SDS011;24063;51.794;19.578;2022-10-19T00:56:01;10.71;;;10.68;;
38266;SDS011;24063;51.794;19.578;2022-10-19T00:57:10;9.97;;;9.97;;
38266;SDS011;24063;51.794;19.578;2022-10-19T00:58:12;10.27;;;10.24;;
38266;SDS011;24063;51.794;19.578;2022-10-19T00:59:16;9.83;;;9.83;;
38266;SDS011;24063;51.794;19.578;2022-10-19T01:00:21;9.89;;;9.81;;
38266;SDS011;24063;51.794;19.578;2022-10-19T01:01:23;9.82;;;9.81;;
38266;SDS011;24063;51.794;19.578;2022-10-19T01:02:27;10.43;;;10.38;;
38266;SDS011;24063;51.794;19.578;2022-10-19T01:03:29;10.55;;;10.36;;
38266;SDS011;24063;51.794;19.578;2022-10-19T01:04:33;10.96;;;10.84;;
38266;SDS011;24063;51.794;19.578;2022-10-19T01:05:38;11.05;;;10.91;;
38266;SDS011;24063;51.794;19.578;2022-10-19T01:06:40;10.79;;;10.79;;
38266;SDS011;24063;51.794;19.578;2022-10-19T01:07:42;10.36;;;10.34;;
38266;SDS011;24063;51.794;19.578;2022-10-19T01:08:45;10.96;;;10.96;;
38266;SDS011;24063;51.794;19.578;2022-10-19T01:09:47;9.83;;;9.83;;
38266;SDS011;24063;51.794;19.578;2022-10-19T01:10:55;10.65;;;10.61;;
38266;SDS011;24063;51.794;19.578;2022-10-19T01:14:53;10.24;;;10.24;;
38266;SDS011;24063;51.794;19.578;2022-10-19T01:21:20;10.05;;;10.02;;
38266;SDS011;24063;51.794;19.578;2022-10-19T01:22:44;10.86;;;10.86;;
38266;SDS011;24063;51.794;19.578;2022-10-19T01:24:11;10.52;;;10.35;;
38266;SDS011;24063;51.794;19.578;2022-10-19T01:26:51;9.81;;;9.75;;
38266;SDS011;24063;51.794;19.578;2022-10-19T01:28:37;10.52;;;10.50;;
38266;SDS011;24063;51.794;19.578;2022-10-19T01:31:00;10.25;;;10.17;;
38266;SDS011;24063;51.794;19.578;2022-10-19T01:33:52;12.14;;;11.89;;
38266;SDS011;24063;51.794;19.578;2022-10-19T01:36:22;12.36;;;12.15;;
38266;SDS011;24063;51.794;19.578;2022-10-19T01:37:32;10.44;;;10.40;;
38266;SDS011;24063;51.794;19.578;2022-10-19T01:40:11;12.56;;;12.56;;
38266;SDS011;24063;51.794;19.578;2022-10-19T01:41:44;11.79;;;11.67;;
38266;SDS011;24063;51.794;19.578;2022-10-19T01:43:18;12.94;;;12.65;;
38266;SDS011;24063;51.794;19.578;2022-10-19T01:44:34;11.33;;;11.31;;
38266;SDS011;24063;51.794;19.578;2022-10-19T01:45:41;12.35;;;12.30;;
38266;SDS011;24063;51.794;19.578;2022-10-19T01:46:59;12.00;;;11.80;;
38266;SDS011;24063;51.794;19.578;2022-10-19T01:48:11;12.80;;;12.74;;
38266;SDS011;24063;51.794;19.578;2022-10-19T01:49:33;12.76;;;12.51;;
38266;SDS011;24063;51.794;19.578;2022-10-19T01:50:48;12.52;;;12.28;;
38266;SDS011;24063;51.794;19.578;2022-10-19T01:52:00;11.82;;;11.78;;
38266;SDS011;24063;51.794;19.578;2022-10-19T01:53:07;11.57;;;11.56;;
38266;SDS011;24063;51.794;19.578;2022-10-19T01:54:13;12.51;;;12.50;;
38266;SDS011;24063;51.794;19.578;2022-10-19T01:55:19;11.87;;;11.76;;
38266;SDS011;24063;51.794;19.578;2022-10-19T01:56:25;11.90;;;11.74;;
38266;SDS011;24063;51.794;19.578;2022-10-19T01:57:32;12.10;;;12.04;;
38266;SDS011;24063;51.794;19.578;2022-10-19T01:58:39;11.96;;;11.96;;
38266;SDS011;24063;51.794;19.578;2022-10-19T01:59:46;12.01;;;11.97;;
38266;SDS011;24063;51.794;19.578;2022-10-19T02:00:50;12.29;;;12.16;;
38266;SDS011;24063;51.794;19.578;2022-10-19T02:01:56;11.80;;;11.72;;
38266;SDS011;24063;51.794;19.578;2022-10-19T02:02:59;11.14;;;11.10;;
38266;SDS011;24063;51.794;19.578;2022-10-19T02:04:04;11.57;;;11.40;;
38266;SDS011;24063;51.794;19.578;2022-10-19T02:05:06;11.93;;;11.92;;
38266;SDS011;24063;51.794;19.578;2022-10-19T02:06:11;11.03;;;10.99;;
38266;SDS011;24063;51.794;19.578;2022-10-19T02:07:15;11.52;;;11.37;;
38266;SDS011;24063;51.794;19.578;2022-10-19T02:08:24;11.18;;;11.11;;
38266;SDS011;24063;51.794;19.578;2022-10-19T02:09:30;12.07;;;11.94;;
38266;SDS011;24063;51.794;19.578;2022-10-19T02:10:32;10.85;;;10.80;;
38266;SDS011;24063;51.794;19.578;2022-10-19T02:11:40;11.03;;;11.03;;
38266;SDS011;24063;51.794;19.578;2022-10-19T02:12:46;10.14;;;10.13;;
38266;SDS011;24063;51.794;19.578;2022-10-19T02:13:55;10.51;;;10.51;;
38266;SDS011;24063;51.794;19.578;2022-10-19T02:15:06;10.63;;;10.62;;
38266;SDS011;24063;51.794;19.578;2022-10-19T02:16:15;11.39;;;11.39;;
38266;SDS011;24063;51.794;19.578;2022-10-19T02:17:31;10.37;;;10.36;;
38266;SDS011;24063;51.794;19.578;2022-10-19T02:18:39;11.26;;;11.25;;
38266;SDS011;24063;51.794;19.578;2022-10-19T02:19:47;12.11;;;12.07;;
38266;SDS011;24063;51.794;19.578;2022-10-19T02:20:49;11.68;;;11.58;;
38266;SDS011;24063;51.794;19.578;2022-10-19T02:21:50;10.80;;;10.68;;
38266;SDS011;24063;51.794;19.578;2022-10-19T02:22:53;10.21;;;10.14;;
38266;SDS011;24063;51.794;19.578;2022-10-19T02:23:54;10.42;;;10.36;;
38266;SDS011;24063;51.794;19.578;2022-10-19T02:24:56;11.17;;;11.16;;
38266;SDS011;24063;51.794;19.578;2022-10-19T02:25:59;10.06;;;10.06;;
38266;SDS011;24063;51.794;19.578;2022-10-19T02:27:01;10.50;;;10.46;;
38266;SDS011;24063;51.794;19.578;2022-10-19T02:28:06;11.09;;;10.97;;
38266;SDS011;24063;51.794;19.578;2022-10-19T02:29:08;11.47;;;11.26;;
38266;SDS011;24063;51.794;19.578;2022-10-19T02:30:15;10.43;;;10.29;;
38266;SDS011;24063;51.794;19.578;2022-10-19T02:31:20;10.39;;;10.21;;
38266;SDS011;24063;51.794;19.578;2022-10-19T02:32:22;9.59;;;9.59;;
38266;SDS011;24063;51.794;19.578;2022-10-19T02:33:24;9.99;;;9.99;;
38266;SDS011;24063;51.794;19.578;2022-10-19T02:34:27;10.87;;;10.87;;
38266;SDS011;24063;51.794;19.578;2022-10-19T02:35:31;10.33;;;10.33;;
38266;SDS011;24063;51.794;19.578;2022-10-19T02:36:33;10.59;;;10.56;;
38266;SDS011;24063;51.794;19.578;2022-10-19T02:37:35;10.85;;;10.72;;
38266;SDS011;24063;51.794;19.578;2022-10-19T02:38:42;10.34;;;10.18;;
38266;SDS011;24063;51.794;19.578;2022-10-19T02:39:44;10.10;;;10.00;;
38266;SDS011;24063;51.794;19.578;2022-10-19T02:40:57;10.61;;;10.54;;
38266;SDS011;24063;51.794;19.578;2022-10-19T02:42:17;9.36;;;9.31;;
38266;SDS011;24063;51.794;19.578;2022-10-19T02:43:28;9.66;;;9.51;;
38266;SDS011;24063;51.794;19.578;2022-10-19T02:44:40;10.32;;;10.13;;
38266;SDS011;24063;51.794;19.578;2022-10-19T02:45:53;10.17;;;10.09;;
38266;SDS011;24063;51.794;19.578;2022-10-19T02:47:03;9.88;;;9.83;;
38266;SDS011;24063;51.794;19.578;2022-10-19T02:48:13;9.66;;;9.61;;
38266;SDS011;24063;51.794;19.578;2022-10-19T02:49:23;10.23;;;10.22;;
38266;SDS011;24063;51.794;19.578;2022-10-19T02:50:26;10.02;;;10.02;;
38266;SDS011;24063;51.794;19.578;2022-10-19T02:51:39;9.39;;;9.39;;
38266;SDS011;24063;51.794;19.578;2022-10-19T02:52:57;10.24;;;10.24;;
38266;SDS011;24063;51.794;19.578;2022-10-19T02:54:00;9.58;;;9.56;;
38266;SDS011;24063;51.794;19.578;2022-10-19T02:55:06;9.47;;;9.46;;
38266;SDS011;24063;51.794;19.578;2022-10-19T02:56:09;10.26;;;10.25;;
38266;SDS011;24063;51.794;19.578;2022-10-19T02:57:15;10.12;;;10.05;;
38266;SDS011;24063;51.794;19.578;2022-10-19T02:58:19;10.60;;;10.53;;
38266;SDS011;24063;51.794;19.578;2022-10-19T02:59:21;9.95;;;9.85;;
38266;SDS011;24063;51.794;19.578;2022-10-19T03:00:23;9.53;;;9.43;;
38266;SDS011;24063;51.794;19.578;2022-10-19T03:01:25;10.22;;;10.11;;
38266;SDS011;24063;51.794;19.578;2022-10-19T03:02:28;9.49;;;9.43;;
38266;SDS011;24063;51.794;19.578;2022-10-19T03:03:29;8.98;;;8.90;;
38266;SDS011;24063;51.794;19.578;2022-10-19T03:04:31;9.46;;;9.33;;
38266;SDS011;24063;51.794;19.578;2022-10-19T03:05:32;10.93;;;10.74;;
38266;SDS011;24063;51.794;19.578;2022-10-19T03:06:34;10.05;;;9.87;;
38266;SDS011;24063;51.794;19.578;2022-10-19T03:07:36;9.60;;;9.51;;
38266;SDS011;24063;51.794;19.578;2022-10-19T03:08:38;10.09;;;10.04;;
38266;SDS011;24063;51.794;19.578;2022-10-19T03:09:40;10.12;;;9.99;;
38266;SDS011;24063;51.794;19.578;2022-10-19T03:10:42;10.56;;;10.36;;
38266;SDS011;24063;51.794;19.578;2022-10-19T03:11:44;10.34;;;10.25;;
38266;SDS011;24063;51.794;19.578;2022-10-19T03:12:45;10.41;;;10.31;;
38266;SDS011;24063;51.794;19.578;2022-10-19T03:13:47;10.45;;;10.38;;
38266;SDS011;24063;51.794;19.578;2022-10-19T03:14:49;9.15;;;9.10;;
38266;SDS011;24063;51.794;19.578;2022-10-19T03:15:50;10.19;;;10.05;;
38266;SDS011;24063;51.794;19.578;2022-10-19T03:16:52;10.12;;;9.94;;
38266;SDS011;24063;51.794;19.578;2022-10-19T03:17:54;10.39;;;10.21;;
38266;SDS011;24063;51.794;19.578;2022-10-19T03:18:56;9.95;;;9.84;;
38266;SDS011;24063;51.794;19.578;2022-10-19T03:19:58;9.84;;;9.70;;
38266;SDS011;24063;51.794;19.578;2022-10-19T03:21:00;10.38;;;10.20;;
38266;SDS011;24063;51.794;19.578;2022-10-19T03:22:06;9.72;;;9.64;;
38266;SDS011;24063;51.794;19.578;2022-10-19T03:23:07;10.20;;;10.19;;
38266;SDS011;24063;51.794;19.578;2022-10-19T03:24:09;9.77;;;9.76;;
38266;SDS011;24063;51.794;19.578;2022-10-19T03:25:12;10.09;;;10.08;;
38266;SDS011;24063;51.794;19.578;2022-10-19T03:26:15;10.05;;;9.89;;
38266;SDS011;24063;51.794;19.578;2022-10-19T03:27:18;10.79;;;10.61;;
38266;SDS011;24063;51.794;19.578;2022-10-19T03:28:19;9.93;;;9.90;;
38266;SDS011;24063;51.794;19.578;2022-10-19T03:29:21;10.69;;;10.64;;
38266;SDS011;24063;51.794;19.578;2022-10-19T03:30:23;10.27;;;10.25;;
38266;SDS011;24063;51.794;19.578;2022-10-19T03:31:25;10.56;;;10.52;;
38266;SDS011;24063;51.794;19.578;2022-10-19T03:32:27;10.76;;;10.66;;
38266;SDS011;24063;51.794;19.578;2022-10-19T03:33:29;10.16;;;10.10;;
38266;SDS011;24063;51.794;19.578;2022-10-19T03:34:30;10.27;;;10.23;;
38266;SDS011;24063;51.794;19.578;2022-10-19T03:35:32;10.35;;;10.35;;
38266;SDS011;24063;51.794;19.578;2022-10-19T03:36:35;10.74;;;10.74;;
38266;SDS011;24063;51.794;19.578;2022-10-19T03:37:39;10.75;;;10.72;;
38266;SDS011;24063;51.794;19.578;2022-10-19T03:38:40;10.28;;;10.19;;
38266;SDS011;24063;51.794;19.578;2022-10-19T03:39:42;10.21;;;10.18;;
38266;SDS011;24063;51.794;19.578;2022-10-19T03:40:44;10.27;;;10.16;;
38266;SDS011;24063;51.794;19.578;2022-10-19T03:41:46;10.58;;;10.57;;
38266;SDS011;24063;51.794;19.578;2022-10-19T03:42:47;10.00;;;10.00;;
38266;SDS011;24063;51.794;19.578;2022-10-19T03:43:49;9.72;;;9.69;;
38266;SDS011;24063;51.794;19.578;2022-10-19T03:44:51;9.52;;;9.50;;
38266;SDS011;24063;51.794;19.578;2022-10-19T03:45:53;11.57;;;11.54;;
38266;SDS011;24063;51.794;19.578;2022-10-19T03:46:54;11.10;;;10.97;;
38266;SDS011;24063;51.794;19.578;2022-10-19T03:47:56;11.72;;;11.66;;
38266;SDS011;24063;51.794;19.578;2022-10-19T03:48:57;11.14;;;11.08;;
38266;SDS011;24063;51.794;19.578;2022-10-19T03:49:59;10.68;;;10.61;;
38266;SDS011;24063;51.794;19.578;2022-10-19T03:51:03;10.52;;;10.45;;
38266;SDS011;24063;51.794;19.578;2022-10-19T03:52:08;11.89;;;11.86;;
38266;SDS011;24063;51.794;19.578;2022-10-19T03:53:10;12.48;;;12.48;;
38266;SDS011;24063;51.794;19.578;2022-10-19T03:54:13;11.95;;;11.95;;
38266;SDS011;24063;51.794;19.578;2022-10-19T03:55:16;12.62;;;12.42;;
38266;SDS011;24063;51.794;19.578;2022-10-19T03:56:19;12.42;;;12.32;;
38266;SDS011;24063;51.794;19.578;2022-10-19T03:57:24;12.75;;;12.74;;
38266;SDS011;24063;51.794;19.578;2022-10-19T03:58:26;12.24;;;12.14;;
38266;SDS011;24063;51.794;19.578;2022-10-19T03:59:28;12.61;;;12.48;;
38266;SDS011;24063;51.794;19.578;2022-10-19T04:00:29;13.27;;;13.15;;
38266;SDS011;24063;51.794;19.578;2022-10-19T04:01:32;12.94;;;12.82;;
38266;SDS011;24063;51.794;19.578;2022-10-19T04:02:37;13.57;;;13.37;;
38266;SDS011;24063;51.794;19.578;2022-10-19T04:03:39;12.84;;;12.75;;
38266;SDS011;24063;51.794;19.578;2022-10-19T04:04:40;13.95;;;13.80;;
38266;SDS011;24063;51.794;19.578;2022-10-19T04:05:42;13.74;;;13.65;;
38266;SDS011;24063;51.794;19.578;2022-10-19T04:06:45;12.56;;;12.55;;
38266;SDS011;24063;51.794;19.578;2022-10-19T04:07:48;14.18;;;14.16;;
38266;SDS011;24063;51.794;19.578;2022-10-19T04:08:49;13.92;;;13.89;;
38266;SDS011;24063;51.794;19.578;2022-10-19T04:09:51;12.99;;;12.99;;
38266;SDS011;24063;51.794;19.578;2022-10-19T04:10:57;13.63;;;13.63;;
38266;SDS011;24063;51.794;19.578;2022-10-19T04:12:06;13.94;;;13.93;;
38266;SDS011;24063;51.794;19.578;2022-10-19T04:13:08;13.22;;;13.16;;
38266;SDS011;24063;51.794;19.578;2022-10-19T04:14:11;12.07;;;11.90;;
38266;SDS011;24063;51.794;19.578;2022-10-19T04:15:27;13.10;;;13.02;;
38266;SDS011;24063;51.794;19.578;2022-10-19T04:16:29;12.66;;;12.66;;
38266;SDS011;24063;51.794;19.578;2022-10-19T04:17:31;11.83;;;11.83;;
38266;SDS011;24063;51.794;19.578;2022-10-19T04:18:33;12.69;;;12.68;;
38266;SDS011;24063;51.794;19.578;2022-10-19T04:19:35;12.65;;;12.59;;
38266;SDS011;24063;51.794;19.578;2022-10-19T04:20:37;12.74;;;12.71;;
38266;SDS011;24063;51.794;19.578;2022-10-19T04:21:43;13.14;;;13.14;;
38266;SDS011;24063;51.794;19.578;2022-10-19T04:22:45;13.01;;;13.01;;
38266;SDS011;24063;51.794;19.578;2022-10-19T04:23:47;12.54;;;12.51;;
38266;SDS011;24063;51.794;19.578;2022-10-19T04:24:49;12.88;;;12.87;;
38266;SDS011;24063;51.794;19.578;2022-10-19T04:25:51;12.05;;;12.00;;
38266;SDS011;24063;51.794;19.578;2022-10-19T04:26:54;11.86;;;11.79;;
38266;SDS011;24063;51.794;19.578;2022-10-19T04:27:56;12.50;;;12.43;;
38266;SDS011;24063;51.794;19.578;2022-10-19T04:28:58;11.95;;;11.86;;
38266;SDS011;24063;51.794;19.578;2022-10-19T04:30:02;11.38;;;11.31;;
38266;SDS011;24063;51.794;19.578;2022-10-19T04:31:05;12.39;;;12.29;;
38266;SDS011;24063;51.794;19.578;2022-10-19T04:32:07;11.19;;;11.14;;
38266;SDS011;24063;51.794;19.578;2022-10-19T04:33:09;11.20;;;11.20;;
38266;SDS011;24063;51.794;19.578;2022-10-19T04:34:10;11.09;;;11.08;;
38266;SDS011;24063;51.794;19.578;2022-10-19T04:35:12;11.73;;;11.65;;
38266;SDS011;24063;51.794;19.578;2022-10-19T04:36:14;11.92;;;11.79;;
38266;SDS011;24063;51.794;19.578;2022-10-19T04:37:16;11.82;;;11.77;;
38266;SDS011;24063;51.794;19.578;2022-10-19T04:38:18;11.47;;;11.42;;
38266;SDS011;24063;51.794;19.578;2022-10-19T04:39:19;11.55;;;11.53;;
38266;SDS011;24063;51.794;19.578;2022-10-19T04:40:21;11.55;;;11.55;;
38266;SDS011;24063;51.794;19.578;2022-10-19T04:41:23;12.03;;;12.02;;
38266;SDS011;24063;51.794;19.578;2022-10-19T04:42:25;12.19;;;12.12;;
38266;SDS011;24063;51.794;19.578;2022-10-19T04:43:27;11.96;;;11.89;;
38266;SDS011;24063;51.794;19.578;2022-10-19T04:44:29;11.08;;;10.97;;
38266;SDS011;24063;51.794;19.578;2022-10-19T04:45:31;11.32;;;11.20;;
38266;SDS011;24063;51.794;19.578;2022-10-19T04:46:35;11.23;;;11.17;;
38266;SDS011;24063;51.794;19.578;2022-10-19T04:47:38;12.45;;;12.28;;
38266;SDS011;24063;51.794;19.578;2022-10-19T04:48:40;11.43;;;11.29;;
38266;SDS011;24063;51.794;19.578;2022-10-19T04:49:42;11.17;;;11.17;;
38266;SDS011;24063;51.794;19.578;2022-10-19T04:50:44;12.36;;;12.29;;
38266;SDS011;24063;51.794;19.578;2022-10-19T04:51:53;11.37;;;11.27;;
38266;SDS011;24063;51.794;19.578;2022-10-19T04:52:55;10.58;;;10.44;;
38266;SDS011;24063;51.794;19.578;2022-10-19T04:53:56;11.35;;;11.23;;
38266;SDS011;24063;51.794;19.578;2022-10-19T04:55:00;11.28;;;11.25;;
38266;SDS011;24063;51.794;19.578;2022-10-19T04:56:05;12.34;;;12.26;;
38266;SDS011;24063;51.794;19.578;2022-10-19T04:57:10;12.11;;;12.03;;
38266;SDS011;24063;51.794;19.578;2022-10-19T04:58:11;12.72;;;12.70;;
38266;SDS011;24063;51.794;19.578;2022-10-19T04:59:13;12.56;;;12.40;;
38266;SDS011;24063;51.794;19.578;2022-10-19T05:00:15;11.52;;;11.42;;
38266;SDS011;24063;51.794;19.578;2022-10-19T05:01:17;11.24;;;11.23;;
38266;SDS011;24063;51.794;19.578;2022-10-19T05:02:21;12.21;;;12.05;;
38266;SDS011;24063;51.794;19.578;2022-10-19T05:03:22;12.19;;;12.01;;
38266;SDS011;24063;51.794;19.578;2022-10-19T05:04:24;12.08;;;12.07;;
38266;SDS011;24063;51.794;19.578;2022-10-19T05:05:26;11.59;;;11.56;;
38266;SDS011;24063;51.794;19.578;2022-10-19T05:06:28;12.25;;;12.21;;
38266;SDS011;24063;51.794;19.578;2022-10-19T05:07:31;11.45;;;11.43;;
38266;SDS011;24063;51.794;19.578;2022-10-19T05:08:34;11.17;;;11.17;;
38266;SDS011;24063;51.794;19.578;2022-10-19T05:09:36;11.74;;;11.73;;
38266;SDS011;24063;51.794;19.578;2022-10-19T05:10:40;11.46;;;11.46;;
38266;SDS011;24063;51.794;19.578;2022-10-19T05:11:48;11.22;;;11.21;;
38266;SDS011;24063;51.794;19.578;2022-10-19T05:12:50;11.00;;;10.91;;
38266;SDS011;24063;51.794;19.578;2022-10-19T05:13:52;11.75;;;11.65;;
38266;SDS011;24063;51.794;19.578;2022-10-19T05:14:55;11.56;;;11.44;;
38266;SDS011;24063;51.794;19.578;2022-10-19T05:15:57;11.71;;;11.55;;
38266;SDS011;24063;51.794;19.578;2022-10-19T05:16:59;12.48;;;12.40;;
38266;SDS011;24063;51.794;19.578;2022-10-19T05:18:01;12.16;;;12.10;;
38266;SDS011;24063;51.794;19.578;2022-10-19T05:19:03;11.64;;;11.57;;
38266;SDS011;24063;51.794;19.578;2022-10-19T05:20:05;11.58;;;11.57;;
38266;SDS011;24063;51.794;19.578;2022-10-19T05:21:10;11.30;;;11.29;;
38266;SDS011;24063;51.794;19.578;2022-10-19T05:22:14;12.05;;;12.02;;
38266;SDS011;24063;51.794;19.578;2022-10-19T05:23:15;11.22;;;11.20;;
38266;SDS011;24063;51.794;19.578;2022-10-19T05:24:17;11.85;;;11.79;;
38266;SDS011;24063;51.794;19.578;2022-10-19T05:25:19;11.24;;;11.11;;
38266;SDS011;24063;51.794;19.578;2022-10-19T05:26:21;11.26;;;11.19;;
38266;SDS011;24063;51.794;19.578;2022-10-19T05:27:25;11.47;;;11.40;;
38266;SDS011;24063;51.794;19.578;2022-10-19T05:28:27;10.66;;;10.60;;
38266;SDS011;24063;51.794;19.578;2022-10-19T05:29:28;10.94;;;10.93;;
38266;SDS011;24063;51.794;19.578;2022-10-19T05:30:30;10.52;;;10.52;;
38266;SDS011;24063;51.794;19.578;2022-10-19T05:31:32;10.90;;;10.89;;
38266;SDS011;24063;51.794;19.578;2022-10-19T05:32:35;10.54;;;10.49;;
38266;SDS011;24063;51.794;19.578;2022-10-19T05:33:37;10.68;;;10.66;;
38266;SDS011;24063;51.794;19.578;2022-10-19T05:34:40;10.97;;;10.96;;
38266;SDS011;24063;51.794;19.578;2022-10-19T05:35:42;11.89;;;11.88;;
38266;SDS011;24063;51.794;19.578;2022-10-19T05:36:43;11.44;;;11.40;;
38266;SDS011;24063;51.794;19.578;2022-10-19T05:37:45;10.84;;;10.81;;
38266;SDS011;24063;51.794;19.578;2022-10-19T05:38:48;10.83;;;10.80;;
38266;SDS011;24063;51.794;19.578;2022-10-19T05:39:50;10.11;;;10.07;;
38266;SDS011;24063;51.794;19.578;2022-10-19T05:40:52;11.53;;;11.40;;
38266;SDS011;24063;51.794;19.578;2022-10-19T05:41:54;11.44;;;11.31;;
38266;SDS011;24063;51.794;19.578;2022-10-19T05:42:55;11.52;;;11.46;;
38266;SDS011;24063;51.794;19.578;2022-10-19T05:43:58;11.88;;;11.85;;
38266;SDS011;24063;51.794;19.578;2022-10-19T05:45:01;11.59;;;11.58;;
38266;SDS011;24063;51.794;19.578;2022-10-19T05:46:04;11.38;;;11.30;;
38266;SDS011;24063;51.794;19.578;2022-10-19T05:47:07;12.19;;;12.10;;
38266;SDS011;24063;51.794;19.578;2022-10-19T05:48:09;11.78;;;11.76;;
38266;SDS011;24063;51.794;19.578;2022-10-19T05:49:11;12.33;;;12.28;;
38266;SDS011;24063;51.794;19.578;2022-10-19T05:50:14;12.06;;;12.00;;
38266;SDS011;24063;51.794;19.578;2022-10-19T05:51:17;11.18;;;11.18;;
38266;SDS011;24063;51.794;19.578;2022-10-19T05:52:20;12.01;;;12.01;;
38266;SDS011;24063;51.794;19.578;2022-10-19T05:53:21;11.14;;;11.14;;
38266;SDS011;24063;51.794;19.578;2022-10-19T05:54:23;11.28;;;11.28;;
38266;SDS011;24063;51.794;19.578;2022-10-19T05:55:28;11.84;;;11.65;;
38266;SDS011;24063;51.794;19.578;2022-10-19T05:56:35;11.74;;;11.61;;
38266;SDS011;24063;51.794;19.578;2022-10-19T05:57:36;11.35;;;11.25;;
38266;SDS011;24063;51.794;19.578;2022-10-19T05:58:38;11.96;;;11.92;;
38266;SDS011;24063;51.794;19.578;2022-10-19T05:59:40;12.07;;;12.04;;
38266;SDS011;24063;51.794;19.578;2022-10-19T06:00:42;12.49;;;12.37;;
38266;SDS011;24063;51.794;19.578;2022-10-19T06:01:44;12.00;;;11.97;;
38266;SDS011;24063;51.794;19.578;2022-10-19T06:02:46;12.29;;;12.29;;
38266;SDS011;24063;51.794;19.578;2022-10-19T06:03:52;11.83;;;11.83;;
38266;SDS011;24063;51.794;19.578;2022-10-19T06:04:55;11.49;;;11.43;;
38266;SDS011;24063;51.794;19.578;2022-10-19T06:05:57;13.13;;;13.06;;
38266;SDS011;24063;51.794;19.578;2022-10-19T06:06:59;12.33;;;12.20;;
38266;SDS011;24063;51.794;19.578;2022-10-19T06:08:01;11.90;;;11.66;;
38266;SDS011;24063;51.794;19.578;2022-10-19T06:09:03;12.22;;;11.94;;
38266;SDS011;24063;51.794;19.578;2022-10-19T06:10:05;12.18;;;11.99;;
38266;SDS011;24063;51.794;19.578;2022-10-19T06:11:08;11.30;;;11.28;;
38266;SDS011;24063;51.794;19.578;2022-10-19T06:12:17;10.38;;;10.38;;
38266;SDS011;24063;51.794;19.578;2022-10-19T06:13:25;11.63;;;11.54;;
38266;SDS011;24063;51.794;19.578;2022-10-19T06:14:26;10.89;;;10.74;;
38266;SDS011;24063;51.794;19.578;2022-10-19T06:15:31;11.64;;;11.48;;
38266;SDS011;24063;51.794;19.578;2022-10-19T06:16:34;11.34;;;11.34;;
38266;SDS011;24063;51.794;19.578;2022-10-19T06:17:36;11.75;;;11.73;;
38266;SDS011;24063;51.794;19.578;2022-10-19T06:18:38;12.51;;;12.50;;
38266;SDS011;24063;51.794;19.578;2022-10-19T06:19:40;11.92;;;11.92;;
38266;SDS011;24063;51.794;19.578;2022-10-19T06:20:42;12.21;;;12.20;;
38266;SDS011;24063;51.794;19.578;2022-10-19T06:21:44;11.51;;;11.49;;
38266;SDS011;24063;51.794;19.578;2022-10-19T06:22:46;12.04;;;12.00;;
38266;SDS011;24063;51.794;19.578;2022-10-19T06:23:51;10.98;;;10.95;;
38266;SDS011;24063;51.794;19.578;2022-10-19T06:24:55;10.71;;;10.67;;
38266;SDS011;24063;51.794;19.578;2022-10-19T06:25:57;10.47;;;10.36;;
38266;SDS011;24063;51.794;19.578;2022-10-19T06:26:59;9.79;;;9.68;;
38266;SDS011;24063;51.794;19.578;2022-10-19T06:28:01;10.11;;;10.06;;